createdAt,value
2022-09-20T00:01:32.521Z,80.69
2022-09-20T00:04:05.098Z,80.41
2022-09-20T00:06:33.260Z,80.20
2022-09-20T00:09:01.439Z,80.66
2022-09-20T00:11:32.700Z,80.76
2022-09-20T00:14:01.645Z,80.58
2022-09-20T00:16:35.801Z,80.71
2022-09-20T00:19:04.641Z,80.65
2022-09-20T00:21:34.974Z,80.88
2022-09-20T00:24:02.383Z,81.04
2022-09-20T00:26:30.240Z,80.60
2022-09-20T00:28:58.633Z,80.85
2022-09-20T00:31:26.265Z,81.05
2022-09-20T00:34:16.304Z,81.08
2022-09-20T00:36:44.823Z,81.19
2022-09-20T00:39:14.487Z,81.19
2022-09-20T00:41:41.614Z,81.30
2022-09-20T00:45:03.572Z,81.00
2022-09-20T00:47:59.675Z,80.99
2022-09-20T00:50:43.086Z,80.99
2022-09-20T00:53:13.453Z,81.11
2022-09-20T00:55:53.048Z,81.17
2022-09-20T00:58:21.853Z,81.36
2022-09-20T01:00:52.230Z,81.10
2022-09-20T01:03:23.063Z,81.30
2022-09-20T01:05:54.799Z,81.61
2022-09-20T01:08:25.275Z,81.57
2022-09-20T01:10:53.643Z,81.48
2022-09-20T01:13:20.627Z,81.58
2022-09-20T01:15:49.351Z,81.93
2022-09-20T01:18:19.453Z,81.50
2022-09-20T01:20:47.845Z,81.79
2022-09-20T01:23:40.942Z,81.89
2022-09-20T01:26:32.609Z,82.14
2022-09-20T01:29:34.147Z,82.32
2022-09-20T01:32:06.235Z,82.22
2022-09-20T01:34:43.951Z,81.81
2022-09-20T01:37:21.803Z,82.10
2022-09-20T01:40:18.864Z,81.93
2022-09-20T01:43:45.515Z,82.08
2022-09-20T01:46:25.983Z,81.80
2022-09-20T01:49:18.883Z,81.70
2022-09-20T01:52:35.345Z,81.71
2022-09-20T01:55:39.970Z,81.54
2022-09-20T01:59:01.912Z,81.70
2022-09-20T02:01:55.740Z,81.46
2022-09-20T02:05:09.295Z,81.60
2022-09-20T02:08:27.144Z,81.31
2022-09-20T02:11:50.164Z,81.17
2022-09-20T02:14:57.919Z,81.57
2022-09-20T02:17:39.854Z,81.53
2022-09-20T02:20:37.835Z,81.20
2022-09-20T02:23:19.954Z,81.19
2022-09-20T02:26:31.976Z,80.98
2022-09-20T02:29:27.290Z,81.31
2022-09-20T02:32:29.287Z,81.58
2022-09-20T02:35:43.942Z,81.49
2022-09-20T02:38:46.419Z,81.35
2022-09-20T02:41:28.135Z,81.46
2022-09-20T02:44:12.627Z,81.65
2022-09-20T02:47:09.619Z,81.35
2022-09-20T02:50:04.347Z,81.64
2022-09-20T02:52:59.124Z,81.70
2022-09-20T02:55:43.576Z,81.76
2022-09-20T02:58:37.215Z,81.69
2022-09-20T03:01:25.099Z,82.04
2022-09-20T03:04:24.982Z,82.08
2022-09-20T03:07:06.628Z,82.25
2022-09-20T03:10:07.048Z,82.51
2022-09-20T03:12:49.361Z,82.51
2022-09-20T03:15:40.162Z,82.10
2022-09-20T03:18:18.549Z,82.09
2022-09-20T03:21:32.133Z,81.99
2022-09-20T03:24:46.512Z,82.20
2022-09-20T03:27:58.971Z,81.93
2022-09-20T03:30:52.282Z,82.08
2022-09-20T03:33:47.221Z,81.84
2022-09-20T03:36:54.737Z,82.18
2022-09-20T03:39:46.182Z,81.96
2022-09-20T03:42:25.185Z,81.85
2022-09-20T03:46:01.151Z,82.03
2022-09-20T03:48:50.930Z,81.87
2022-09-20T03:52:14.246Z,81.89
2022-09-20T03:54:54.854Z,81.96
2022-09-20T03:57:29.257Z,81.64
2022-09-20T04:00:02.747Z,81.60
2022-09-20T04:03:16.708Z,81.78
2022-09-20T04:06:40.644Z,82.05
2022-09-20T04:09:43.722Z,81.56
2022-09-20T04:13:05.294Z,81.45
2022-09-20T04:16:12.743Z,81.78
2022-09-20T04:19:10.590Z,81.51
2022-09-20T04:22:00.583Z,81.48
2022-09-20T04:25:09.699Z,81.69
2022-09-20T04:27:58.467Z,81.54
2022-09-20T04:30:29.859Z,81.11
2022-09-20T04:33:21.954Z,81.13
2022-09-20T04:36:29.782Z,80.97
2022-09-20T04:39:33.195Z,81.06
2022-09-20T04:42:54.853Z,81.33
2022-09-20T04:45:56.102Z,81.08
2022-09-20T04:49:05.814Z,81.31
2022-09-20T04:52:14.563Z,81.70
2022-09-20T04:55:15.075Z,81.44
2022-09-20T04:58:21.599Z,81.64
2022-09-20T05:01:16.818Z,81.66
2022-09-20T05:04:17.350Z,81.59
2022-09-20T05:07:21.423Z,82.17
2022-09-20T05:10:25.788Z,82.23
2022-09-20T05:13:31.046Z,82.04
2022-09-20T05:16:08.885Z,81.85
2022-09-20T05:18:45.553Z,82.11
2022-09-20T05:21:18.382Z,82.14
2022-09-20T05:24:12.056Z,82.07
2022-09-20T05:27:07.180Z,82.38
2022-09-20T05:30:23.913Z,82.52
2022-09-20T05:33:23.756Z,81.05
2022-09-20T05:36:31.207Z,78.69
2022-09-20T05:39:16.395Z,75.44
2022-09-20T05:41:56.373Z,73.14
2022-09-20T05:45:18.149Z,70.23
2022-09-20T05:48:01.835Z,68.35
2022-09-20T05:51:18.654Z,67.31
2022-09-20T05:54:33.400Z,66.72
2022-09-20T05:57:29.392Z,67.22
2022-09-20T06:00:14.418Z,67.35
2022-09-20T06:02:59.920Z,67.75
2022-09-20T06:05:59.325Z,68.02
2022-09-20T06:08:41.866Z,68.27
2022-09-20T06:11:33.703Z,69.08
2022-09-20T06:14:39.354Z,69.33
2022-09-20T06:17:32.555Z,69.84
2022-09-20T06:20:12.191Z,69.94
2022-09-20T06:22:55.360Z,70.16
2022-09-20T06:25:43.010Z,70.16
2022-09-20T06:28:21.190Z,69.82
2022-09-20T06:30:53.029Z,69.96
2022-09-20T06:33:28.984Z,69.97
2022-09-20T06:36:29.720Z,70.17
2022-09-20T06:39:40.915Z,69.84
2022-09-20T06:42:10.181Z,70.03
2022-09-20T06:44:41.335Z,69.89
2022-09-20T06:47:14.477Z,69.78
2022-09-20T06:49:42.771Z,69.61
2022-09-20T06:52:22.801Z,69.69
2022-09-20T06:54:56.159Z,69.70
2022-09-20T06:57:37.912Z,69.65
2022-09-20T07:00:11.510Z,69.65
2022-09-20T07:02:38.667Z,69.28
2022-09-20T07:05:07.571Z,69.30
2022-09-20T07:07:34.539Z,69.28
2022-09-20T07:10:01.615Z,69.12
2022-09-20T07:12:33.552Z,69.23
2022-09-20T07:15:00.558Z,68.99
2022-09-20T07:17:27.639Z,68.85
2022-09-20T07:19:56.585Z,68.86
2022-09-20T07:22:23.763Z,68.57
2022-09-20T07:24:51.090Z,68.85
2022-09-20T07:27:18.389Z,68.89
2022-09-20T07:29:46.215Z,69.08
2022-09-20T07:32:13.418Z,68.62
2022-09-20T07:34:40.577Z,68.47
2022-09-20T07:37:07.542Z,68.68
2022-09-20T07:39:34.650Z,68.40
2022-09-20T07:42:06.091Z,68.30
2022-09-20T07:44:33.176Z,68.19
2022-09-20T07:47:01.088Z,68.29
2022-09-20T07:49:31.986Z,68.63
2022-09-20T07:51:59.276Z,68.52
2022-09-20T07:54:27.597Z,68.44
2022-09-20T07:56:55.139Z,68.66
2022-09-20T07:59:22.292Z,68.42
2022-09-20T08:01:49.618Z,68.46
2022-09-20T08:04:16.698Z,68.33
2022-09-20T08:06:45.470Z,68.08
2022-09-20T08:09:13.655Z,68.38
2022-09-20T08:11:42.827Z,68.27
2022-09-20T08:14:15.638Z,68.18
2022-09-20T08:16:49.748Z,67.99
2022-09-20T08:19:20.924Z,67.91
2022-09-20T08:21:49.988Z,67.72
2022-09-20T08:24:17.602Z,67.75
2022-09-20T08:26:45.118Z,67.49
2022-09-20T08:29:13.435Z,67.31
2022-09-20T08:31:42.411Z,66.94
2022-09-20T08:34:12.532Z,67.06
2022-09-20T08:36:45.966Z,67.20
2022-09-20T08:42:36.693Z,67.42
2022-09-20T08:45:22.160Z,67.31
2022-09-20T08:48:00.359Z,67.04
2022-09-20T08:50:28.783Z,67.07
2022-09-20T08:53:00.721Z,67.05
2022-09-20T08:55:36.361Z,67.12
2022-09-20T08:58:08.583Z,67.03
2022-09-20T09:00:38.419Z,66.82
2022-09-20T09:03:12.254Z,66.87
2022-09-20T09:05:50.880Z,67.13
2022-09-20T09:08:28.414Z,67.01
2022-09-20T09:11:10.770Z,67.08
2022-09-20T09:14:39.262Z,67.48
2022-09-20T09:17:07.682Z,67.76
2022-09-20T09:19:53.075Z,67.85
2022-09-20T09:22:46.160Z,67.90
2022-09-20T09:25:32.305Z,67.94
2022-09-20T09:28:25.430Z,67.99
2022-09-20T09:30:52.474Z,68.00
2022-09-20T09:33:30.382Z,68.14
2022-09-20T09:36:10.786Z,68.04
2022-09-20T09:38:41.902Z,67.98
2022-09-20T09:41:26.724Z,68.14
2022-09-20T09:44:23.788Z,68.27
2022-09-20T09:46:53.708Z,68.20
2022-09-20T09:49:27.294Z,68.51
2022-09-20T09:52:02.777Z,68.54
2022-09-20T09:54:52.422Z,68.16
2022-09-20T09:57:55.800Z,68.20
2022-09-20T10:00:27.210Z,68.13
2022-09-20T10:03:44.046Z,68.19
2022-09-20T10:06:25.562Z,68.53
2022-09-20T10:09:18.985Z,68.86
2022-09-20T10:12:00.654Z,68.27
2022-09-20T10:15:07.747Z,67.12
2022-09-20T10:18:02.164Z,67.32
2022-09-20T10:21:03.263Z,67.42
2022-09-20T10:24:04.475Z,67.51
2022-09-20T10:26:40.228Z,67.43
2022-09-20T10:29:50.723Z,67.39
2022-09-20T10:32:40.391Z,66.86
2022-09-20T10:35:14.211Z,67.07
2022-09-20T10:38:21.699Z,67.13
2022-09-20T10:41:15.795Z,65.94
2022-09-20T10:44:05.125Z,66.14
2022-09-20T10:47:14.374Z,66.10
2022-09-20T10:50:29.393Z,64.92
2022-09-20T10:53:39.986Z,64.11
2022-09-20T10:56:31.852Z,63.94
2022-09-20T10:59:23.232Z,64.69
2022-09-20T11:02:27.359Z,65.18
2022-09-20T11:05:18.899Z,65.57
2022-09-20T11:07:52.582Z,65.71
2022-09-20T11:10:52.112Z,66.01
2022-09-20T11:13:45.739Z,65.97
2022-09-20T11:16:18.623Z,66.21
2022-09-20T11:19:27.004Z,65.89
2022-09-20T11:22:21.740Z,66.15
2022-09-20T11:25:00.656Z,62.29
2022-09-20T11:27:46.247Z,63.56
2022-09-20T11:30:23.340Z,63.97
2022-09-20T11:33:17.361Z,61.38
2022-09-20T11:36:01.868Z,61.88
2022-09-20T11:38:53.092Z,63.02
2022-09-20T11:41:29.520Z,63.73
2022-09-20T11:44:12.095Z,64.16
2022-09-20T11:47:01.719Z,64.45
2022-09-20T11:50:07.722Z,64.88
2022-09-20T11:53:05.145Z,65.01
2022-09-20T11:55:52.435Z,65.07
2022-09-20T11:58:22.480Z,65.18
2022-09-20T12:00:55.456Z,64.92
2022-09-20T12:03:41.580Z,64.63
2022-09-20T12:06:26.362Z,64.54
2022-09-20T12:08:53.708Z,64.31
2022-09-20T12:11:41.297Z,63.95
2022-09-20T12:14:23.854Z,63.76
2022-09-20T12:16:51.780Z,63.71
2022-09-20T12:19:21.515Z,63.79
2022-09-20T12:22:00.564Z,63.65
2022-09-20T12:24:45.460Z,63.65
2022-09-20T12:27:29.223Z,63.87
2022-09-20T12:30:19.352Z,63.92
2022-09-20T12:32:58.757Z,63.90
2022-09-20T12:35:39.094Z,63.92
2022-09-20T12:38:21.166Z,63.63
2022-09-20T12:41:10.158Z,63.55
2022-09-20T12:43:58.571Z,63.71
2022-09-20T12:46:56.665Z,63.48
2022-09-20T12:49:49.553Z,63.44
2022-09-20T12:53:06.307Z,63.56
2022-09-20T12:55:43.741Z,63.60
2022-09-20T12:58:16.385Z,63.66
2022-09-20T13:01:00.978Z,63.49
2022-09-20T13:03:39.283Z,63.63
2022-09-20T13:06:10.933Z,63.53
2022-09-20T13:08:58.830Z,63.32
2022-09-20T13:11:41.974Z,63.47
2022-09-20T13:14:18.430Z,63.48
2022-09-20T13:17:01.394Z,63.49
2022-09-20T13:19:41.482Z,63.36
2022-09-20T13:22:12.551Z,63.53
2022-09-20T13:24:48.997Z,63.61
2022-09-20T13:27:28.970Z,63.27
2022-09-20T13:30:08.765Z,63.50
2022-09-20T13:32:36.016Z,63.22
2022-09-20T13:35:18.272Z,63.15
2022-09-20T13:38:10.029Z,63.19
2022-09-20T13:40:47.804Z,63.00
2022-09-20T13:43:37.676Z,63.09
2022-09-20T13:46:14.097Z,62.98
2022-09-20T13:48:42.584Z,62.90
2022-09-20T13:51:24.642Z,62.97
2022-09-20T13:53:51.843Z,63.01
2022-09-20T13:56:30.015Z,63.13
2022-09-20T13:59:00.972Z,63.16
2022-09-20T14:01:32.445Z,63.31
2022-09-20T14:04:13.665Z,63.11
2022-09-20T14:06:42.477Z,63.38
2022-09-20T14:09:41.598Z,63.34
2022-09-20T14:12:11.298Z,63.39
2022-09-20T14:14:39.075Z,63.09
2022-09-20T14:17:09.578Z,63.27
2022-09-20T14:19:42.575Z,63.25
2022-09-20T14:22:20.912Z,63.11
2022-09-20T14:24:59.530Z,63.13
2022-09-20T14:27:26.594Z,63.15
2022-09-20T14:29:56.290Z,63.22
2022-09-20T14:32:44.947Z,63.01
2022-09-20T14:35:21.921Z,63.23
2022-09-20T14:37:55.335Z,63.28
2022-09-20T14:40:30.403Z,63.06
2022-09-20T14:43:00.413Z,63.19
2022-09-20T14:45:34.625Z,63.44
2022-09-20T14:48:11.893Z,63.30
2022-09-20T14:51:07.591Z,63.68
2022-09-20T14:53:37.187Z,63.50
2022-09-20T14:56:07.239Z,63.54
2022-09-20T14:59:09.581Z,63.45
2022-09-20T15:01:42.375Z,63.47
2022-09-20T15:04:23.518Z,60.48
2022-09-20T15:06:53.198Z,61.65
2022-09-20T15:09:21.955Z,62.27
2022-09-20T15:12:16.369Z,62.53
2022-09-20T15:14:44.218Z,62.03
2022-09-20T15:17:20.326Z,62.13
2022-09-20T15:19:50.375Z,62.23
2022-09-20T15:22:17.793Z,62.60
2022-09-20T15:24:44.855Z,62.26
2022-09-20T15:27:15.449Z,62.09
2022-09-20T15:29:45.152Z,62.32
2022-09-20T15:32:12.191Z,62.41
2022-09-20T15:34:39.303Z,62.33
2022-09-20T15:37:06.329Z,63.76
2022-09-20T15:39:34.490Z,63.58
2022-09-20T15:42:02.551Z,62.97
2022-09-20T15:44:29.802Z,62.35
2022-09-20T15:46:59.369Z,61.72
2022-09-20T15:49:28.627Z,61.84
2022-09-20T15:51:55.735Z,61.57
2022-09-20T15:54:22.815Z,61.46
2022-09-20T15:56:53.339Z,61.15
2022-09-20T15:59:23.231Z,60.63
2022-09-20T16:01:51.710Z,60.47
2022-09-20T16:04:19.915Z,60.78
2022-09-20T16:06:49.712Z,59.96
2022-09-20T16:09:18.290Z,59.79
2022-09-20T16:11:47.058Z,58.86
2022-09-20T16:14:14.484Z,57.98
2022-09-20T16:16:41.962Z,59.25
2022-09-20T16:19:20.106Z,58.83
2022-09-20T16:21:58.881Z,59.22
2022-09-20T16:24:34.013Z,59.83
2022-09-20T16:27:03.885Z,58.98
2022-09-20T16:29:32.129Z,58.34
2022-09-20T16:32:03.412Z,59.27
2022-09-20T16:34:34.615Z,58.85
2022-09-20T16:37:10.395Z,59.15
2022-09-20T16:39:37.770Z,59.15
2022-09-20T16:42:07.523Z,59.29
2022-09-20T16:44:37.254Z,59.66
2022-09-20T16:47:08.984Z,59.74
2022-09-20T16:49:37.376Z,60.72
2022-09-20T16:52:06.199Z,61.10
2022-09-20T16:54:33.871Z,60.71
2022-09-20T16:57:01.471Z,62.52
2022-09-20T16:59:28.649Z,63.01
2022-09-20T17:01:55.725Z,63.39
2022-09-20T17:04:23.179Z,63.81
2022-09-20T17:06:51.769Z,65.39
2022-09-20T17:09:18.992Z,66.10
2022-09-20T17:11:50.288Z,66.25
2022-09-20T17:14:20.578Z,66.26
2022-09-20T17:16:49.510Z,66.72
2022-09-20T17:19:20.785Z,66.78
2022-09-20T17:21:50.617Z,65.75
2022-09-20T17:24:20.728Z,66.25
2022-09-20T17:26:49.003Z,65.76
2022-09-20T17:29:18.200Z,65.13
2022-09-20T17:31:53.969Z,65.86
2022-09-20T17:34:22.246Z,65.74
2022-09-20T17:36:50.824Z,65.19
2022-09-20T17:39:18.498Z,65.01
2022-09-20T17:41:48.927Z,64.76
2022-09-20T17:44:16.744Z,65.59
2022-09-20T17:46:46.822Z,66.02
2022-09-20T17:49:20.772Z,65.77
2022-09-20T17:51:53.716Z,65.68
2022-09-20T17:54:21.984Z,65.29
2022-09-20T17:56:53.499Z,65.51
2022-09-20T17:59:21.278Z,65.68
2022-09-20T18:01:51.507Z,65.79
2022-09-20T18:04:20.916Z,65.31
2022-09-20T18:06:50.807Z,65.92
2022-09-20T18:09:21.458Z,66.03
2022-09-20T18:11:52.837Z,66.14
2022-09-20T18:14:27.351Z,65.95
2022-09-20T18:17:01.030Z,66.48
2022-09-20T18:19:34.473Z,66.46
2022-09-20T18:22:03.203Z,67.20
2022-09-20T18:24:31.035Z,66.95
2022-09-20T18:26:58.330Z,67.48
2022-09-20T18:29:25.351Z,67.58
2022-09-20T18:31:57.931Z,67.32
2022-09-20T18:34:32.081Z,67.48
2022-09-20T18:37:01.157Z,67.46
2022-09-20T18:39:33.738Z,66.91
2022-09-20T18:42:02.197Z,67.25
2022-09-20T18:44:32.362Z,67.12
2022-09-20T18:47:01.376Z,67.13
2022-09-20T18:49:29.508Z,67.42
2022-09-20T18:51:57.754Z,68.14
2022-09-20T18:54:24.885Z,67.83
2022-09-20T18:56:52.395Z,67.75
2022-09-20T18:59:25.251Z,68.22
2022-09-20T19:01:55.695Z,67.82
2022-09-20T19:05:06.797Z,68.01
2022-09-20T19:08:09.293Z,68.17
2022-09-20T19:10:56.331Z,68.13
2022-09-20T19:13:45.103Z,67.86
2022-09-20T19:16:21.899Z,68.07
2022-09-20T19:19:20.159Z,69.05
2022-09-20T19:22:31.878Z,69.97
2022-09-20T19:25:17.432Z,69.97
2022-09-20T19:27:45.023Z,69.91
2022-09-20T19:30:17.363Z,69.91
2022-09-20T19:32:45.619Z,70.42
2022-09-20T19:35:28.355Z,70.07
2022-09-20T19:38:24.419Z,70.46
2022-09-20T19:41:48.515Z,70.71
2022-09-20T19:44:53.052Z,70.55
2022-09-20T19:48:22.234Z,70.95
2022-09-20T19:50:52.627Z,71.30
2022-09-20T19:53:26.735Z,71.46
2022-09-20T19:56:16.637Z,71.33
2022-09-20T19:58:45.483Z,71.90
2022-09-20T20:01:13.508Z,71.57
2022-09-20T20:03:41.067Z,71.72
2022-09-20T20:06:36.908Z,71.79
2022-09-20T20:09:09.411Z,72.04
2022-09-20T20:11:54.176Z,71.53
2022-09-20T20:14:44.496Z,71.72
2022-09-20T20:17:45.591Z,71.32
2022-09-20T20:20:25.097Z,71.41
2022-09-20T20:23:02.560Z,71.39
2022-09-20T20:26:02.919Z,71.62
2022-09-20T20:28:30.796Z,71.71
2022-09-20T20:31:02.221Z,71.70
2022-09-20T20:33:30.823Z,72.01
2022-09-20T20:36:01.379Z,72.42
2022-09-20T20:38:30.156Z,72.29
2022-09-20T20:41:15.034Z,72.52
2022-09-20T20:43:43.813Z,72.71
2022-09-20T20:46:14.330Z,72.88
2022-09-20T20:48:42.198Z,72.45
2022-09-20T20:51:12.603Z,72.69
2022-09-20T20:53:47.055Z,72.82
2022-09-20T20:56:19.405Z,73.11
2022-09-20T20:58:47.912Z,73.07
2022-09-20T21:01:21.387Z,73.32
2022-09-20T21:03:54.229Z,73.58
2022-09-20T21:06:25.059Z,73.47
2022-09-20T21:08:52.698Z,73.53
2022-09-20T21:11:33.560Z,73.72
2022-09-20T21:14:03.210Z,73.98
2022-09-20T21:16:35.240Z,74.01
2022-09-20T21:19:04.686Z,74.03
2022-09-20T21:21:38.877Z,73.83
2022-09-20T21:24:09.069Z,74.15
2022-09-20T21:26:38.048Z,73.73
2022-09-20T21:29:08.372Z,74.04
2022-09-20T21:31:38.593Z,73.97
2022-09-20T21:34:07.942Z,74.11
2022-09-20T21:36:36.687Z,74.41
2022-09-20T21:39:05.472Z,74.16
2022-09-20T21:41:35.859Z,74.43
2022-09-20T21:44:05.394Z,74.41
2022-09-20T21:46:35.853Z,74.52
2022-09-20T21:49:05.545Z,74.68
2022-09-20T21:51:33.631Z,75.30
2022-09-20T21:54:02.105Z,74.85
2022-09-20T21:56:32.514Z,75.02
2022-09-20T21:59:02.178Z,75.11
2022-09-20T22:01:35.059Z,74.71
2022-09-20T22:04:08.262Z,74.77
2022-09-20T22:06:39.150Z,75.36
2022-09-20T22:09:18.000Z,75.09
2022-09-20T22:11:48.791Z,74.98
2022-09-20T22:14:19.590Z,75.40
2022-09-20T22:16:48.622Z,75.23
2022-09-20T22:19:18.271Z,75.14
2022-09-20T22:21:48.204Z,75.14
2022-09-20T22:24:16.583Z,75.10
2022-09-20T22:26:51.235Z,75.62
2022-09-20T22:29:18.692Z,75.28
2022-09-20T22:31:47.632Z,75.40
2022-09-20T22:34:22.582Z,75.40
2022-09-20T22:36:49.947Z,75.31
2022-09-20T22:39:17.608Z,75.59
2022-09-20T22:41:47.753Z,75.41
2022-09-20T22:44:14.978Z,75.48
2022-09-20T22:46:42.200Z,75.57
2022-09-20T22:49:10.179Z,75.52
2022-09-20T22:51:38.131Z,75.66
2022-09-20T22:54:08.795Z,75.60
2022-09-20T22:56:37.008Z,75.66
2022-09-20T22:59:07.835Z,75.69
2022-09-20T23:01:42.395Z,75.53
2022-09-20T23:04:13.786Z,75.54
2022-09-20T23:06:47.829Z,75.59
2022-09-20T23:09:18.005Z,75.62
2022-09-20T23:11:45.422Z,75.69
2022-09-20T23:14:18.701Z,75.67
2022-09-20T23:16:47.441Z,75.55
2022-09-20T23:19:15.527Z,75.93
2022-09-20T23:21:43.810Z,76.19
2022-09-20T23:24:13.488Z,75.49
2022-09-20T23:26:41.677Z,76.10
2022-09-20T23:29:14.978Z,75.77
2022-09-20T23:31:46.145Z,75.83
2022-09-20T23:34:14.765Z,76.23
2022-09-20T23:36:42.641Z,76.38
2022-09-20T23:39:10.945Z,75.83
2022-09-20T23:41:38.853Z,76.60
2022-09-20T23:44:06.801Z,76.16
2022-09-20T23:46:34.486Z,76.13
2022-09-20T23:49:02.392Z,76.13
2022-09-20T23:51:30.748Z,76.06
2022-09-20T23:53:57.834Z,76.03
2022-09-20T23:56:25.037Z,75.89
2022-09-20T23:58:52.171Z,75.93
